createdAt,value
2023-03-02T00:00:41.936Z,8.60
2023-03-02T00:01:45.578Z,8.70
2023-03-02T00:02:47.175Z,8.76
2023-03-02T00:03:49.320Z,8.79
2023-03-02T00:04:55.116Z,8.80
2023-03-02T00:05:57.712Z,8.82
2023-03-02T00:07:04.094Z,8.87
2023-03-02T00:08:05.735Z,8.87
2023-03-02T00:09:07.354Z,8.87
2023-03-02T00:10:09.707Z,8.80
2023-03-02T00:11:11.420Z,8.80
2023-03-02T00:12:14.172Z,8.83
2023-03-02T00:13:15.937Z,8.78
2023-03-02T00:14:17.765Z,8.65
2023-03-02T00:15:19.449Z,8.59
2023-03-02T00:16:21.097Z,8.60
2023-03-02T00:17:27.848Z,8.65
2023-03-02T00:18:29.428Z,8.75
2023-03-02T00:19:31.183Z,8.87
2023-03-02T00:20:34.657Z,8.94
2023-03-02T00:21:36.175Z,9.02
2023-03-02T00:22:39.424Z,9.10
2023-03-02T00:23:41.005Z,9.16
2023-03-02T00:24:42.525Z,9.17
2023-03-02T00:25:44.073Z,9.20
2023-03-02T00:26:45.808Z,9.26
2023-03-02T00:27:47.321Z,9.31
2023-03-02T00:28:49.210Z,9.38
2023-03-02T00:29:51.416Z,9.45
2023-03-02T00:30:52.953Z,9.53
2023-03-02T00:31:54.680Z,9.56
2023-03-02T00:32:58.493Z,9.53
2023-03-02T00:34:00.104Z,9.53
2023-03-02T00:35:02.204Z,9.58
2023-03-02T00:36:04.208Z,9.63
2023-03-02T00:37:05.757Z,9.65
2023-03-02T00:38:08.362Z,9.66
2023-03-02T00:39:09.900Z,9.68
2023-03-02T00:40:12.166Z,9.67
2023-03-02T00:41:15.785Z,9.66
2023-03-02T00:42:17.354Z,9.61
2023-03-02T00:43:18.974Z,9.61
2023-03-02T00:44:20.511Z,9.64
2023-03-02T00:45:22.104Z,9.57
2023-03-02T00:46:24.954Z,9.59
2023-03-02T00:47:26.557Z,9.56
2023-03-02T00:48:28.094Z,9.61
2023-03-02T00:49:29.634Z,9.67
2023-03-02T00:50:31.229Z,9.74
2023-03-02T00:51:33.294Z,9.76
2023-03-02T00:52:35.020Z,9.75
2023-03-02T00:53:37.358Z,9.71
2023-03-02T00:54:38.909Z,9.62
2023-03-02T00:55:40.514Z,9.59
2023-03-02T00:56:42.631Z,9.48
2023-03-02T00:57:44.198Z,9.38
2023-03-02T00:58:45.784Z,9.34
2023-03-02T00:59:47.348Z,9.30
2023-03-02T01:00:49.009Z,9.37
2023-03-02T01:01:57.959Z,9.41
2023-03-02T01:02:59.993Z,9.48
2023-03-02T01:04:01.708Z,9.51
2023-03-02T01:05:03.394Z,9.56
2023-03-02T01:06:05.362Z,9.57
2023-03-02T01:07:18.325Z,9.61
2023-03-02T01:08:19.850Z,9.63
2023-03-02T01:09:21.537Z,9.63
2023-03-02T01:10:23.135Z,9.64
2023-03-02T01:11:24.663Z,9.65
2023-03-02T01:12:26.178Z,9.64
2023-03-02T01:13:28.578Z,9.66
2023-03-02T01:14:30.246Z,9.65
2023-03-02T01:15:33.137Z,9.71
2023-03-02T01:16:35.213Z,9.71
2023-03-02T01:17:37.160Z,9.66
2023-03-02T01:18:39.222Z,9.66
2023-03-02T01:19:41.572Z,9.65
2023-03-02T01:20:43.110Z,9.62
2023-03-02T01:21:44.727Z,9.63
2023-03-02T01:22:46.635Z,9.61
2023-03-02T01:23:48.170Z,9.59
2023-03-02T01:24:49.811Z,9.57
2023-03-02T01:25:52.117Z,9.49
2023-03-02T01:26:53.702Z,9.39
2023-03-02T01:27:55.268Z,9.34
2023-03-02T01:28:56.825Z,9.39
2023-03-02T01:29:58.406Z,9.41
2023-03-02T01:31:02.660Z,9.44
2023-03-02T01:32:04.669Z,9.43
2023-03-02T01:33:06.237Z,9.38
2023-03-02T01:34:07.962Z,9.38
2023-03-02T01:35:09.967Z,9.35
2023-03-02T01:36:11.547Z,9.37
2023-03-02T01:37:13.157Z,9.36
2023-03-02T01:38:15.088Z,9.40
2023-03-02T01:39:16.769Z,9.46
2023-03-02T01:40:18.344Z,9.48
2023-03-02T01:41:20.277Z,9.52
2023-03-02T01:42:21.873Z,9.54
2023-03-02T01:43:23.582Z,9.56
2023-03-02T01:44:45.543Z,9.54
2023-03-02T01:45:57.123Z,9.47
2023-03-02T01:46:59.165Z,9.49
2023-03-02T01:48:00.754Z,9.52
2023-03-02T01:49:07.067Z,9.58
2023-03-02T01:50:21.310Z,9.70
2023-03-02T01:51:25.354Z,9.76
2023-03-02T01:52:28.516Z,9.79
2023-03-02T01:53:32.757Z,9.78
2023-03-02T01:54:35.080Z,9.78
2023-03-02T01:55:39.031Z,9.76
2023-03-02T01:56:41.251Z,9.76
2023-03-02T01:57:46.837Z,9.76
2023-03-02T01:58:52.733Z,9.79
2023-03-02T01:59:59.715Z,9.79
2023-03-02T02:01:01.425Z,9.78
2023-03-02T02:02:06.588Z,9.78
2023-03-02T02:03:20.909Z,9.75
2023-03-02T02:04:25.821Z,9.72
2023-03-02T02:05:28.224Z,9.69
2023-03-02T02:06:42.846Z,9.68
2023-03-02T02:07:44.555Z,9.59
2023-03-02T02:08:46.616Z,9.46
2023-03-02T02:09:51.230Z,9.37
2023-03-02T02:10:54.317Z,9.30
2023-03-02T02:11:56.526Z,9.26
2023-03-02T02:12:58.057Z,9.21
2023-03-02T02:14:01.859Z,9.21
2023-03-02T02:15:05.383Z,9.10
2023-03-02T02:16:07.669Z,8.95
2023-03-02T02:17:10.354Z,8.80
2023-03-02T02:18:12.373Z,8.65
2023-03-02T02:19:42.033Z,8.45
2023-03-02T02:20:45.422Z,8.32
2023-03-02T02:21:47.045Z,8.30
2023-03-02T02:23:03.751Z,8.33
2023-03-02T02:24:22.802Z,8.29
2023-03-02T02:25:36.466Z,8.22
2023-03-02T02:26:44.828Z,8.17
2023-03-02T02:27:46.837Z,8.14
2023-03-02T02:28:57.735Z,8.17
2023-03-02T02:30:02.961Z,8.12
2023-03-02T02:31:16.451Z,8.01
2023-03-02T02:32:23.074Z,7.93
2023-03-02T02:33:26.379Z,7.90
2023-03-02T02:34:44.505Z,7.92
2023-03-02T02:35:47.911Z,7.83
2023-03-02T02:36:55.904Z,7.80
2023-03-02T02:38:03.254Z,7.82
2023-03-02T02:39:07.582Z,7.77
2023-03-02T02:40:16.973Z,7.71
2023-03-02T02:41:23.718Z,7.67
2023-03-02T02:42:33.251Z,7.66
2023-03-02T02:43:34.931Z,7.65
2023-03-02T02:44:36.629Z,7.66
2023-03-02T02:45:38.525Z,7.65
2023-03-02T02:46:40.116Z,7.62
2023-03-02T02:47:41.702Z,7.62
2023-03-02T02:48:43.249Z,7.61
2023-03-02T02:49:46.902Z,7.64
2023-03-02T02:50:48.898Z,7.63
2023-03-02T02:51:50.568Z,7.62
2023-03-02T02:52:58.134Z,7.51
2023-03-02T02:54:01.932Z,7.45
2023-03-02T02:55:03.576Z,7.46
2023-03-02T02:56:08.604Z,7.44
2023-03-02T02:57:12.104Z,7.47
2023-03-02T02:58:36.084Z,7.49
2023-03-02T02:59:43.481Z,7.44
2023-03-02T03:00:44.991Z,7.40
2023-03-02T03:01:48.456Z,7.28
2023-03-02T03:02:58.237Z,7.19
2023-03-02T03:04:05.078Z,7.12
2023-03-02T03:05:13.453Z,7.07
2023-03-02T03:06:19.409Z,7.04
2023-03-02T03:07:23.838Z,7.06
2023-03-02T03:08:43.435Z,7.09
2023-03-02T03:09:47.128Z,7.13
2023-03-02T03:10:48.912Z,7.17
2023-03-02T03:11:54.554Z,7.25
2023-03-02T03:12:56.754Z,7.40
2023-03-02T03:14:01.156Z,7.46
2023-03-02T03:15:03.442Z,7.47
2023-03-02T03:16:08.147Z,7.48
2023-03-02T03:17:13.829Z,7.49
2023-03-02T03:18:23.003Z,7.48
2023-03-02T03:19:33.066Z,7.49
2023-03-02T03:20:34.640Z,7.52
2023-03-02T03:21:36.406Z,7.55
2023-03-02T03:22:38.787Z,7.60
2023-03-02T03:23:40.357Z,7.70
2023-03-02T03:24:43.866Z,7.80
2023-03-02T03:25:45.432Z,7.83
2023-03-02T03:26:48.144Z,7.86
2023-03-02T03:27:49.692Z,7.82
2023-03-02T03:28:51.377Z,7.79
2023-03-02T03:29:53.045Z,7.75
2023-03-02T03:30:54.561Z,7.72
2023-03-02T03:31:57.637Z,7.75
2023-03-02T03:32:59.206Z,7.76
2023-03-02T03:34:00.864Z,7.79
2023-03-02T03:35:03.585Z,7.84
2023-03-02T03:36:05.596Z,7.89
2023-03-02T03:37:12.855Z,7.91
2023-03-02T03:38:14.496Z,7.97
2023-03-02T03:39:17.877Z,7.98
2023-03-02T03:40:19.554Z,7.94
2023-03-02T03:41:21.295Z,7.91
2023-03-02T03:42:24.162Z,7.84
2023-03-02T03:43:25.767Z,7.72
2023-03-02T03:44:27.836Z,7.71
2023-03-02T03:45:30.470Z,7.76
2023-03-02T03:46:33.104Z,7.85
2023-03-02T03:47:35.248Z,7.91
2023-03-02T03:48:36.891Z,7.99
2023-03-02T03:49:38.602Z,8.06
2023-03-02T03:50:40.335Z,8.03
2023-03-02T03:51:41.975Z,7.97
2023-03-02T03:52:43.580Z,7.88
2023-03-02T03:53:45.165Z,7.93
2023-03-02T03:54:46.662Z,8.00
2023-03-02T03:55:48.410Z,8.08
2023-03-02T03:56:50.728Z,8.08
2023-03-02T03:57:52.246Z,8.13
2023-03-02T03:59:06.123Z,8.18
2023-03-02T04:00:10.667Z,8.30
2023-03-02T04:01:12.230Z,8.39
2023-03-02T04:02:13.814Z,8.42
2023-03-02T04:03:15.794Z,8.46
2023-03-02T04:04:20.993Z,8.44
2023-03-02T04:05:22.630Z,8.33
2023-03-02T04:06:24.182Z,8.33
2023-03-02T04:07:25.756Z,8.37
2023-03-02T04:08:27.338Z,8.41
2023-03-02T04:09:31.596Z,8.47
2023-03-02T04:10:33.349Z,8.51
2023-03-02T04:11:38.281Z,8.44
2023-03-02T04:12:42.220Z,8.43
2023-03-02T04:13:43.805Z,8.48
2023-03-02T04:14:45.668Z,8.57
2023-03-02T04:15:47.354Z,8.65
2023-03-02T04:16:49.636Z,8.70
2023-03-02T04:17:52.287Z,8.75
2023-03-02T04:18:53.983Z,8.81
2023-03-02T04:19:55.714Z,8.79
2023-03-02T04:20:57.222Z,8.70
2023-03-02T04:21:59.530Z,8.71
2023-03-02T04:23:01.100Z,8.67
2023-03-02T04:24:02.656Z,8.67
2023-03-02T04:25:05.238Z,8.67
2023-03-02T04:26:06.933Z,8.60
2023-03-02T04:27:08.953Z,8.54
2023-03-02T04:28:10.551Z,8.43
2023-03-02T04:29:12.855Z,8.33
2023-03-02T04:30:16.633Z,8.22
2023-03-02T04:31:18.393Z,8.13
2023-03-02T04:32:20.205Z,8.10
2023-03-02T04:33:21.754Z,8.14
2023-03-02T04:34:25.550Z,8.19
2023-03-02T04:35:27.132Z,8.17
2023-03-02T04:36:28.667Z,8.18
2023-03-02T04:37:30.433Z,8.23
2023-03-02T04:38:31.998Z,8.28
2023-03-02T04:39:33.573Z,8.29
2023-03-02T04:40:35.166Z,8.36
2023-03-02T04:41:36.782Z,8.42
2023-03-02T04:42:38.327Z,8.39
2023-03-02T04:43:39.866Z,8.24
2023-03-02T04:44:41.396Z,8.14
2023-03-02T04:45:42.920Z,8.20
2023-03-02T04:46:45.956Z,8.24
2023-03-02T04:47:47.528Z,8.32
2023-03-02T04:48:49.122Z,8.30
2023-03-02T04:49:54.670Z,8.32
2023-03-02T04:50:56.225Z,8.36
2023-03-02T04:51:57.752Z,8.45
2023-03-02T04:52:59.343Z,8.51
2023-03-02T04:54:04.048Z,8.54
2023-03-02T04:55:06.774Z,8.55
2023-03-02T04:56:08.319Z,8.54
2023-03-02T04:57:09.988Z,8.52
2023-03-02T04:58:11.658Z,8.53
2023-03-02T04:59:13.194Z,8.54
2023-03-02T05:00:17.014Z,8.52
2023-03-02T05:01:20.346Z,8.49
2023-03-02T05:02:21.973Z,8.44
2023-03-02T05:03:23.550Z,8.36
2023-03-02T05:04:25.254Z,8.35
2023-03-02T05:05:28.259Z,8.36
2023-03-02T05:06:30.057Z,8.45
2023-03-02T05:07:31.964Z,8.55
2023-03-02T05:08:33.705Z,8.63
2023-03-02T05:09:35.428Z,8.69
2023-03-02T05:10:36.984Z,8.74
2023-03-02T05:11:38.740Z,8.82
2023-03-02T05:12:54.555Z,8.86
2023-03-02T05:13:59.569Z,8.90
2023-03-02T05:15:01.073Z,8.91
2023-03-02T05:16:03.493Z,8.94
2023-03-02T05:17:05.142Z,8.94
2023-03-02T05:18:09.299Z,8.93
2023-03-02T05:19:14.086Z,8.98
2023-03-02T05:20:15.862Z,9.20
2023-03-02T05:21:19.505Z,9.28
2023-03-02T05:22:21.063Z,9.33
2023-03-02T05:23:27.174Z,9.36
2023-03-02T05:24:28.808Z,9.40
2023-03-02T05:25:33.141Z,9.43
2023-03-02T05:26:35.077Z,9.44
2023-03-02T05:27:36.886Z,9.40
2023-03-02T05:28:39.297Z,9.36
2023-03-02T05:29:40.837Z,9.36
2023-03-02T05:30:42.519Z,9.33
2023-03-02T05:31:45.358Z,9.25
2023-03-02T05:32:47.387Z,9.13
2023-03-02T05:33:49.316Z,9.01
2023-03-02T05:34:50.834Z,8.94
2023-03-02T05:35:52.422Z,8.89
2023-03-02T05:36:54.070Z,8.95
2023-03-02T05:37:55.622Z,8.99
2023-03-02T05:38:57.176Z,9.01
2023-03-02T05:39:58.721Z,8.90
2023-03-02T05:41:00.248Z,8.80
2023-03-02T05:42:01.846Z,8.68
2023-03-02T05:43:03.901Z,8.66
2023-03-02T05:44:09.391Z,8.70
2023-03-02T05:45:23.050Z,8.76
2023-03-02T05:46:25.601Z,8.81
2023-03-02T05:47:27.198Z,8.82
2023-03-02T05:48:30.513Z,8.79
2023-03-02T05:49:32.048Z,8.70
2023-03-02T05:50:33.729Z,8.74
2023-03-02T05:51:35.370Z,8.84
2023-03-02T05:52:36.934Z,8.90
2023-03-02T05:53:38.509Z,8.98
2023-03-02T05:54:40.151Z,9.01
2023-03-02T05:55:41.708Z,9.03
2023-03-02T05:56:43.342Z,8.99
2023-03-02T05:57:45.993Z,8.86
2023-03-02T05:58:47.562Z,8.81
2023-03-02T05:59:50.975Z,8.73
2023-03-02T06:00:52.536Z,8.67
2023-03-02T06:01:58.738Z,8.53
2023-03-02T06:03:00.413Z,8.58
2023-03-02T06:04:02.292Z,8.52
2023-03-02T06:05:04.153Z,8.48
2023-03-02T06:06:06.049Z,8.49
2023-03-02T06:07:07.630Z,8.55
2023-03-02T06:08:09.217Z,8.58
2023-03-02T06:09:10.736Z,8.52
2023-03-02T06:10:13.733Z,8.47
2023-03-02T06:11:15.330Z,8.38
2023-03-02T06:12:18.001Z,8.31
2023-03-02T06:13:19.571Z,8.36
2023-03-02T06:14:21.145Z,8.41
2023-03-02T06:15:22.943Z,8.45
2023-03-02T06:16:24.829Z,8.41
2023-03-02T06:17:27.634Z,8.42
2023-03-02T06:18:30.162Z,8.54
2023-03-02T06:19:32.069Z,8.65
2023-03-02T06:20:33.599Z,8.72
2023-03-02T06:21:35.298Z,8.82
2023-03-02T06:22:42.251Z,8.88
2023-03-02T06:23:43.771Z,9.01
2023-03-02T06:24:45.705Z,9.10
2023-03-02T06:25:48.953Z,9.07
2023-03-02T06:26:52.596Z,9.10
2023-03-02T06:27:54.199Z,9.18
2023-03-02T06:28:55.816Z,9.25
2023-03-02T06:29:57.428Z,9.31
2023-03-02T06:31:00.517Z,9.37
2023-03-02T06:32:02.220Z,9.44
2023-03-02T06:33:03.924Z,9.54
2023-03-02T06:34:05.526Z,9.60
2023-03-02T06:35:08.001Z,9.61
2023-03-02T06:36:12.558Z,9.63
2023-03-02T06:37:14.193Z,9.60
2023-03-02T06:38:16.115Z,9.61
2023-03-02T06:39:17.695Z,9.61
2023-03-02T06:40:21.232Z,9.62
2023-03-02T06:41:22.860Z,9.62
2023-03-02T06:42:26.253Z,9.58
2023-03-02T06:43:27.831Z,9.56
2023-03-02T06:44:29.453Z,9.54
2023-03-02T06:45:33.823Z,9.52
2023-03-02T06:46:35.978Z,9.54
2023-03-02T06:47:37.515Z,9.55
2023-03-02T06:48:39.124Z,9.49
2023-03-02T06:49:40.672Z,9.46
2023-03-02T06:50:42.174Z,9.39
2023-03-02T06:51:43.827Z,9.27
2023-03-02T06:52:45.357Z,9.29
2023-03-02T06:53:46.883Z,9.36
2023-03-02T06:54:48.465Z,9.42
2023-03-02T06:55:50.795Z,9.48
2023-03-02T06:56:52.357Z,9.56
2023-03-02T06:57:54.348Z,9.61
2023-03-02T06:58:56.056Z,9.63
2023-03-02T06:59:57.575Z,9.67
2023-03-02T07:00:59.124Z,9.72
2023-03-02T07:02:00.818Z,9.78
2023-03-02T07:03:02.384Z,9.83
2023-03-02T07:04:04.504Z,9.87
2023-03-02T07:05:07.253Z,9.93
2023-03-02T07:06:10.149Z,9.93
2023-03-02T07:07:11.689Z,9.94
2023-03-02T07:08:13.233Z,9.96
2023-03-02T07:09:15.050Z,9.99
2023-03-02T07:10:17.132Z,10.04
2023-03-02T07:11:18.685Z,10.04
2023-03-02T07:12:20.253Z,10.07
2023-03-02T07:13:21.909Z,10.04
2023-03-02T07:14:23.486Z,10.04
2023-03-02T07:15:25.529Z,10.06
2023-03-02T07:16:27.724Z,9.96
2023-03-02T07:17:29.523Z,9.89
2023-03-02T07:18:31.107Z,9.94
2023-03-02T07:19:33.081Z,9.95
2023-03-02T07:20:34.774Z,10.02
2023-03-02T07:21:36.325Z,10.09
2023-03-02T07:22:38.420Z,10.13
2023-03-02T07:23:39.921Z,10.17
2023-03-02T07:24:42.997Z,10.15
2023-03-02T07:25:45.557Z,10.14
2023-03-02T07:26:47.091Z,10.10
2023-03-02T07:27:48.643Z,9.98
2023-03-02T07:28:50.173Z,9.83
2023-03-02T07:29:51.692Z,9.80
2023-03-02T07:30:53.834Z,9.83
2023-03-02T07:31:57.331Z,9.94
2023-03-02T07:32:59.002Z,10.04
2023-03-02T07:34:00.677Z,10.10
2023-03-02T07:35:02.275Z,10.12
2023-03-02T07:36:04.520Z,10.08
2023-03-02T07:37:06.403Z,10.05
2023-03-02T07:38:08.097Z,10.02
2023-03-02T07:39:09.696Z,10.04
2023-03-02T07:40:12.469Z,10.09
2023-03-02T07:41:15.554Z,10.06
2023-03-02T07:42:17.777Z,9.93
2023-03-02T07:43:19.937Z,9.93
2023-03-02T07:44:21.486Z,9.95
2023-03-02T07:45:24.988Z,10.00
2023-03-02T07:46:26.726Z,10.00
2023-03-02T07:47:28.366Z,9.97
2023-03-02T07:48:30.657Z,9.94
2023-03-02T07:49:32.166Z,9.95
2023-03-02T07:50:33.841Z,9.88
2023-03-02T07:51:35.469Z,9.90
2023-03-02T07:52:36.997Z,9.94
2023-03-02T07:53:38.616Z,9.97
2023-03-02T07:54:40.170Z,10.01
2023-03-02T07:55:42.462Z,10.06
2023-03-02T07:56:44.065Z,10.15
2023-03-02T07:57:45.749Z,10.21
2023-03-02T07:58:47.734Z,10.27
2023-03-02T07:59:49.461Z,10.25
2023-03-02T08:00:51.177Z,10.28
2023-03-02T08:01:52.816Z,10.36
2023-03-02T08:02:54.500Z,10.44
2023-03-02T08:03:56.325Z,10.45
2023-03-02T08:04:57.979Z,10.42
2023-03-02T08:06:03.681Z,10.43
2023-03-02T08:07:05.255Z,10.48
2023-03-02T08:08:06.932Z,10.57
2023-03-02T08:09:08.574Z,10.45
2023-03-02T08:10:11.240Z,10.19
2023-03-02T08:11:16.859Z,10.15
2023-03-02T08:12:18.436Z,9.89
2023-03-02T08:13:19.987Z,9.77
2023-03-02T08:14:21.543Z,9.87
2023-03-02T08:15:23.489Z,10.00
2023-03-02T08:16:26.491Z,10.10
2023-03-02T08:17:28.074Z,10.17
2023-03-02T08:18:29.888Z,10.20
2023-03-02T08:19:31.645Z,10.27
2023-03-02T08:20:33.352Z,10.30
2023-03-02T08:21:35.304Z,10.35
2023-03-02T08:22:37.185Z,10.20
2023-03-02T08:23:38.808Z,10.00
2023-03-02T08:24:41.814Z,9.95
2023-03-02T08:25:43.333Z,9.92
2023-03-02T08:26:44.915Z,9.83
2023-03-02T08:27:47.105Z,9.92
2023-03-02T08:28:48.890Z,9.98
2023-03-02T08:29:50.414Z,10.08
2023-03-02T08:30:56.757Z,10.15
2023-03-02T08:31:59.099Z,10.23
2023-03-02T08:33:04.215Z,10.25
2023-03-02T08:34:07.511Z,10.13
2023-03-02T08:35:09.228Z,10.11
2023-03-02T08:36:16.694Z,10.19
2023-03-02T08:37:21.189Z,10.18
2023-03-02T08:38:23.822Z,10.05
2023-03-02T08:39:25.470Z,10.04
2023-03-02T08:40:27.157Z,10.09
2023-03-02T08:41:28.710Z,10.15
2023-03-02T08:42:30.252Z,10.00
2023-03-02T08:43:31.878Z,9.79
2023-03-02T08:44:33.587Z,9.66
2023-03-02T08:45:35.162Z,9.60
2023-03-02T08:46:36.754Z,9.51
2023-03-02T08:47:38.399Z,9.45
2023-03-02T08:48:40.084Z,9.56
2023-03-02T08:49:41.641Z,9.65
2023-03-02T08:50:43.160Z,9.71
2023-03-02T08:51:46.373Z,9.76
2023-03-02T08:52:47.961Z,9.79
2023-03-02T08:53:51.126Z,9.83
2023-03-02T08:54:52.715Z,9.83
2023-03-02T08:55:54.674Z,9.88
2023-03-02T08:56:56.280Z,9.99
2023-03-02T08:57:57.807Z,10.10
2023-03-02T08:59:04.458Z,10.20
2023-03-02T09:00:09.213Z,10.29
2023-03-02T09:01:31.889Z,10.34
2023-03-02T09:02:33.861Z,10.38
2023-03-02T09:03:35.398Z,10.39
2023-03-02T09:04:37.013Z,10.44
2023-03-02T09:05:38.619Z,10.45
2023-03-02T09:06:42.564Z,10.50
2023-03-02T09:07:44.276Z,10.48
2023-03-02T09:08:46.080Z,10.24
2023-03-02T09:09:47.656Z,10.04
2023-03-02T09:10:49.205Z,9.92
2023-03-02T09:11:50.729Z,9.63
2023-03-02T09:12:52.286Z,9.55
2023-03-02T09:13:54.964Z,9.34
2023-03-02T09:14:56.732Z,9.19
2023-03-02T09:15:58.529Z,9.15
2023-03-02T09:17:00.169Z,9.18
2023-03-02T09:18:01.767Z,9.19
2023-03-02T09:19:03.483Z,9.27
2023-03-02T09:20:05.685Z,9.18
2023-03-02T09:21:07.302Z,9.19
2023-03-02T09:22:09.293Z,9.21
2023-03-02T09:23:12.523Z,9.20
2023-03-02T09:24:14.087Z,9.23
2023-03-02T09:25:15.833Z,9.35
2023-03-02T09:26:17.400Z,9.43
2023-03-02T09:27:18.960Z,9.55
2023-03-02T09:28:21.790Z,9.62
2023-03-02T09:29:23.321Z,9.72
2023-03-02T09:30:24.932Z,9.81
2023-03-02T09:31:29.044Z,9.88
2023-03-02T09:32:32.054Z,9.96
2023-03-02T09:33:34.743Z,10.05
2023-03-02T09:34:36.433Z,10.06
2023-03-02T09:35:38.902Z,10.09
2023-03-02T09:36:40.527Z,10.07
2023-03-02T09:37:44.293Z,10.12
2023-03-02T09:38:46.121Z,10.20
2023-03-02T09:39:47.960Z,10.15
2023-03-02T09:40:49.541Z,10.13
2023-03-02T09:42:06.013Z,10.07
2023-03-02T09:43:34.307Z,10.07
2023-03-02T09:44:50.612Z,9.97
2023-03-02T09:46:10.690Z,9.85
2023-03-02T09:47:35.398Z,9.81
2023-03-02T09:48:40.580Z,9.67
2023-03-02T09:50:03.820Z,9.62
2023-03-02T09:51:16.277Z,9.71
2023-03-02T09:52:45.275Z,9.66
2023-03-02T09:53:56.158Z,9.71
2023-03-02T09:55:09.097Z,9.75
2023-03-02T09:56:17.777Z,9.73
2023-03-02T09:57:48.581Z,9.69
2023-03-02T09:59:03.038Z,9.71
2023-03-02T10:00:19.609Z,9.83
2023-03-02T10:01:32.704Z,9.92
2023-03-02T10:02:52.800Z,10.03
2023-03-02T10:04:01.749Z,10.10
2023-03-02T10:05:08.949Z,10.15
2023-03-02T10:06:10.990Z,10.11
2023-03-02T10:07:22.537Z,10.21
2023-03-02T10:08:29.678Z,10.34
2023-03-02T10:09:31.327Z,10.43
2023-03-02T10:10:59.892Z,10.57
2023-03-02T10:12:19.706Z,10.66
2023-03-02T10:13:42.424Z,10.75
2023-03-02T10:14:58.724Z,10.82
2023-03-02T10:16:27.286Z,10.81
2023-03-02T10:17:28.841Z,10.81
2023-03-02T10:18:38.442Z,10.83
2023-03-02T10:19:44.773Z,10.88
2023-03-02T10:21:11.315Z,10.88
2023-03-02T10:22:24.323Z,10.91
2023-03-02T10:23:25.841Z,10.96
2023-03-02T10:24:38.466Z,10.97
2023-03-02T10:25:58.578Z,11.02
2023-03-02T10:27:22.634Z,11.10
2023-03-02T10:28:29.347Z,11.14
2023-03-02T10:29:39.802Z,11.17
2023-03-02T10:30:42.025Z,11.24
2023-03-02T10:31:43.708Z,11.25
2023-03-02T10:32:49.114Z,11.23
2023-03-02T10:33:50.652Z,11.16
2023-03-02T10:34:53.269Z,11.15
2023-03-02T10:35:54.940Z,11.19
2023-03-02T10:36:58.433Z,11.19
2023-03-02T10:38:15.744Z,11.21
2023-03-02T10:39:17.846Z,11.22
2023-03-02T10:40:41.411Z,11.13
2023-03-02T10:42:06.930Z,11.06
2023-03-02T10:43:25.198Z,10.94
2023-03-02T10:44:33.154Z,11.02
2023-03-02T10:45:35.056Z,11.02
2023-03-02T10:46:46.305Z,11.07
2023-03-02T10:47:47.983Z,11.13
2023-03-02T10:48:56.363Z,11.13
2023-03-02T10:49:58.298Z,11.18
2023-03-02T10:51:00.618Z,11.07
2023-03-02T10:52:12.810Z,11.05
2023-03-02T10:53:18.526Z,11.04
2023-03-02T10:54:20.064Z,11.07
2023-03-02T10:55:21.613Z,11.10
2023-03-02T10:56:23.321Z,10.92
2023-03-02T10:57:42.940Z,10.69
2023-03-02T10:58:44.504Z,10.63
2023-03-02T10:59:47.488Z,10.67
2023-03-02T11:00:57.201Z,10.90
2023-03-02T11:02:04.275Z,11.11
2023-03-02T11:03:21.233Z,11.07
2023-03-02T11:04:22.937Z,10.99
2023-03-02T11:05:39.781Z,10.97
2023-03-02T11:06:41.294Z,11.03
2023-03-02T11:07:55.937Z,11.03
2023-03-02T11:09:01.422Z,10.98
2023-03-02T11:10:17.133Z,11.04
2023-03-02T11:11:24.510Z,11.12
2023-03-02T11:12:26.414Z,11.22
2023-03-02T11:13:34.843Z,11.26
2023-03-02T11:14:36.483Z,11.34
2023-03-02T11:15:48.856Z,11.36
2023-03-02T11:16:52.461Z,11.44
2023-03-02T11:17:59.680Z,11.45
2023-03-02T11:19:07.146Z,11.44
2023-03-02T11:20:17.845Z,11.50
2023-03-02T11:21:24.484Z,11.48
2023-03-02T11:22:31.878Z,11.46
2023-03-02T11:23:43.978Z,11.52
2023-03-02T11:24:51.562Z,11.58
2023-03-02T11:25:57.132Z,11.53
2023-03-02T11:27:08.096Z,11.45
2023-03-02T11:28:20.912Z,11.38
2023-03-02T11:29:22.812Z,11.45
2023-03-02T11:30:27.124Z,11.45
2023-03-02T11:31:37.003Z,11.37
2023-03-02T11:33:02.063Z,11.32
2023-03-02T11:34:17.329Z,11.11
2023-03-02T11:35:25.056Z,10.86
2023-03-02T11:36:52.745Z,10.69
2023-03-02T11:37:57.288Z,10.67
2023-03-02T11:38:58.856Z,10.65
2023-03-02T11:40:00.314Z,10.64
2023-03-02T11:41:18.177Z,10.82
2023-03-02T11:42:45.458Z,10.84
2023-03-02T11:43:47.062Z,10.82
2023-03-02T11:44:49.347Z,10.79
2023-03-02T11:46:01.679Z,10.85
2023-03-02T11:47:03.336Z,10.85
2023-03-02T11:48:26.780Z,10.72
2023-03-02T11:49:52.882Z,10.62
2023-03-02T11:51:01.179Z,10.57
2023-03-02T11:52:02.840Z,10.47
2023-03-02T11:53:11.880Z,10.44
2023-03-02T11:54:13.419Z,10.57
2023-03-02T11:55:18.210Z,10.73
2023-03-02T11:56:20.085Z,10.89
2023-03-02T11:57:33.355Z,10.96
2023-03-02T11:58:35.983Z,10.91
2023-03-02T11:59:38.579Z,10.89
2023-03-02T12:00:42.840Z,10.98
2023-03-02T12:01:48.461Z,11.13
2023-03-02T12:03:21.061Z,11.18
2023-03-02T12:04:33.368Z,11.23
2023-03-02T12:05:37.970Z,11.03
2023-03-02T12:06:44.094Z,10.90
2023-03-02T12:07:57.197Z,11.01
2023-03-02T12:09:11.938Z,10.96
2023-03-02T12:10:28.604Z,10.78
2023-03-02T12:11:36.199Z,10.81
2023-03-02T12:12:47.089Z,10.85
2023-03-02T12:13:54.340Z,10.80
2023-03-02T12:14:55.903Z,10.72
2023-03-02T12:15:57.963Z,10.68
2023-03-02T12:17:27.185Z,10.78
2023-03-02T12:18:45.328Z,10.86
2023-03-02T12:19:48.135Z,10.97
2023-03-02T12:21:23.136Z,11.12
2023-03-02T12:22:30.299Z,11.11
2023-03-02T12:23:34.107Z,11.14
2023-03-02T12:24:38.546Z,11.24
2023-03-02T12:25:49.580Z,11.29
2023-03-02T12:27:25.616Z,10.94
2023-03-02T12:28:34.134Z,10.82
2023-03-02T12:29:41.655Z,10.76
2023-03-02T12:30:43.226Z,10.78
2023-03-02T12:31:49.284Z,10.93
2023-03-02T12:33:02.903Z,10.86
2023-03-02T12:34:25.004Z,10.91
2023-03-02T12:35:27.002Z,10.89
2023-03-02T12:36:41.351Z,10.81
2023-03-02T12:37:53.489Z,10.74
2023-03-02T12:39:39.109Z,10.61
2023-03-02T12:40:58.890Z,10.58
2023-03-02T12:42:34.634Z,10.57
2023-03-02T12:43:38.090Z,10.52
2023-03-02T12:44:59.545Z,10.55
2023-03-02T12:46:10.257Z,10.65
2023-03-02T12:47:16.194Z,10.71
2023-03-02T12:48:39.792Z,10.63
2023-03-02T12:49:55.057Z,10.50
2023-03-02T12:51:01.946Z,10.48
2023-03-02T12:52:26.508Z,10.63
2023-03-02T12:53:28.598Z,10.74
2023-03-02T12:54:34.892Z,10.74
2023-03-02T12:55:38.859Z,10.85
2023-03-02T12:56:40.930Z,10.86
2023-03-02T12:57:50.226Z,10.74
2023-03-02T12:58:56.400Z,10.68
2023-03-02T13:00:00.962Z,10.80
2023-03-02T13:01:03.765Z,10.92
2023-03-02T13:02:21.546Z,11.02
2023-03-02T13:03:23.486Z,11.02
2023-03-02T13:04:26.715Z,11.03
2023-03-02T13:05:32.259Z,11.09
2023-03-02T13:06:39.254Z,11.15
2023-03-02T13:07:47.063Z,11.11
2023-03-02T13:08:52.887Z,11.18
2023-03-02T13:09:57.661Z,11.29
2023-03-02T13:11:02.249Z,11.31
2023-03-02T13:12:04.017Z,11.33
2023-03-02T13:13:28.885Z,11.24
2023-03-02T13:14:30.701Z,11.21
2023-03-02T13:15:32.245Z,11.27
2023-03-02T13:16:36.938Z,11.29
2023-03-02T13:17:38.767Z,11.28
2023-03-02T13:18:40.323Z,11.34
2023-03-02T13:19:41.902Z,11.33
2023-03-02T13:20:43.864Z,11.17
2023-03-02T13:21:45.572Z,11.09
2023-03-02T13:22:47.389Z,10.98
2023-03-02T13:23:51.856Z,10.86
2023-03-02T13:24:59.117Z,10.82
2023-03-02T13:26:05.636Z,10.87
2023-03-02T13:27:18.333Z,11.01
2023-03-02T13:28:34.525Z,11.10
2023-03-02T13:29:36.113Z,11.14
2023-03-02T13:30:43.564Z,10.90
2023-03-02T13:31:45.688Z,10.91
2023-03-02T13:32:47.318Z,10.91
2023-03-02T13:33:50.613Z,10.98
2023-03-02T13:34:55.454Z,11.10
2023-03-02T13:35:57.304Z,11.09
2023-03-02T13:36:58.999Z,11.11
2023-03-02T13:38:04.709Z,11.08
2023-03-02T13:39:17.868Z,11.21
2023-03-02T13:40:22.396Z,11.28
2023-03-02T13:41:33.283Z,11.33
2023-03-02T13:42:40.931Z,11.24
2023-03-02T13:43:42.636Z,11.25
2023-03-02T13:44:46.347Z,11.37
2023-03-02T13:45:57.092Z,11.27
2023-03-02T13:46:59.753Z,11.17
2023-03-02T13:48:15.369Z,11.01
2023-03-02T13:49:33.121Z,10.92
2023-03-02T13:50:34.664Z,10.96
2023-03-02T13:51:40.048Z,11.07
2023-03-02T13:52:41.643Z,11.20
2023-03-02T13:53:51.215Z,11.27
2023-03-02T13:54:53.289Z,11.32
2023-03-02T13:55:55.095Z,11.35
2023-03-02T13:56:59.205Z,11.36
2023-03-02T13:58:01.628Z,11.37
2023-03-02T13:59:03.258Z,11.39
2023-03-02T14:00:05.832Z,11.34
2023-03-02T14:01:07.918Z,11.40
2023-03-02T14:02:28.723Z,11.40
2023-03-02T14:03:31.241Z,11.35
2023-03-02T14:04:33.090Z,11.19
2023-03-02T14:05:34.846Z,11.10
2023-03-02T14:06:36.453Z,11.15
2023-03-02T14:07:37.992Z,11.20
2023-03-02T14:08:39.648Z,11.26
2023-03-02T14:09:41.198Z,11.31
2023-03-02T14:10:42.870Z,11.32
2023-03-02T14:11:50.561Z,11.24
2023-03-02T14:13:04.410Z,11.21